Aviation Digital Data Service (ADDS)

Output produced by METARs form (1237 UTC 17 August 2019)
found at http://aviationweather.gov/metar/data/
 
METAR text: KLXV 171153Z AUTO 00000KT 10SM CLR 02/M02 A3031 RMK AO2 SLP111 7//// T00171022 10094 20011 56007 $
Conditions at: KLXV (LEADVILLE , CO, US) observed 1153 UTC 17 August 2019
Temperature: 1.7°C (35°F)
Dewpoint: -2.2°C (28°F) [RH = 75%]
Pressure (altimeter): 30.31 inches Hg (1026.5 mb)
[Sea-level pressure: 1011.1 mb]
Winds: calm
Visibility: 10 or more miles (16+ km)
Ceiling: at least 12,000 feet AGL
Clouds: sky clear below 12,000 feet AGL
Weather:
SOME DATA ABOVE MAY BE INACCURATE!!!
"$" is an indication the sensor requires maintenance